Time;durP1;ratioP1;P1;durP2;ratioP2;P2;SDS_P1;SDS_P2;PMS_P1;PMS_P2;Temp;Humidity;BMP_temperature;BMP_pressure;BME280_temperature;BME280_humidity;BME280_pressure;Samples;Min_cycle;Max_cycle;Signal;HPM_P1;HPM_P2
2022/06/02 00:02:12;;;;;;;;;;;;;;;;;;4988444;28;136215;-64
2022/06/02 00:04:39;;;;;;;;;;;;;;;;;;4983781;28;113238;-64
2022/06/02 00:07:05;;;;;;;;;;;;;;;;;;4984637;28;121694;-65
2022/06/02 00:09:32;;;;;;;;;;;;;;;;;;4984350;28;136147;-63
2022/06/02 00:11:58;;;;;;;;;;;;;;;;;;4980203;28;120030;-64
2022/06/02 00:14:24;;;;;;;;;;;;;;;;;;4988375;28;135370;-63
2022/06/02 00:16:50;;;;;;;;;;;;;;;;;;4984078;28;115701;-63
2022/06/02 00:19:17;;;;;;;;;;;;;;;;;;4981205;28;135050;-64
2022/06/02 00:21:43;;;;;;;;;;;;;;;;;;4977319;28;129911;-64
2022/06/02 00:24:09;;;;;;;;;;;;;;;;;;4984651;28;122063;-64
2022/06/02 00:26:39;;;;;;;;;;;;;;;;;;4986326;28;132042;-64
2022/06/02 00:29:05;;;;;;;;;;;;;;;;;;4987625;28;112441;-64
2022/06/02 00:31:32;;;;;;;;;;;;;;;;;;4988089;28;106551;-64
2022/06/02 00:33:59;;;;;;;;;;;;;;;;;;4980848;28;137723;-62
2022/06/02 00:36:25;;;;;;;;;;;;;;;;;;4990306;28;116038;-64
2022/06/02 00:38:51;;;;;;;;;;;;;;;;;;4986836;28;128925;-63
2022/06/02 00:41:17;;;;;;;;;;;;;;;;;;4983025;28;126923;-63
2022/06/02 00:43:45;;;;;;;;;;;;;;;;;;4989701;28;114273;-64
2022/06/02 00:46:11;;;;;;;;;;;;;;;;;;4980130;28;133695;-63
2022/06/02 00:48:38;;;;;;;;;;;;;;;;;;4986273;28;135619;-64
2022/06/02 00:51:04;;;;;;;;;;;;;;;;;;4977712;28;122666;-65
2022/06/02 00:53:30;;;;;;;;;;;;;;;;;;4981655;28;136324;-62
2022/06/02 00:58:42;;;;;;;;;;;;;;;;;;4988129;28;122426;-62
2022/06/02 01:01:08;;;;;;;;;;;;;;;;;;4982900;28;134890;-62
2022/06/02 01:03:34;;;;;;;;;;;;;;;;;;4982306;28;107987;-63
2022/06/02 01:06:01;;;;;;;;;;;;;;;;;;4988072;28;135660;-62
2022/06/02 01:08:27;;;;;;;;;;;;;;;;;;4981355;28;135793;-62
2022/06/02 01:10:54;;;;;;;;;;;;;;;;;;4985118;28;121437;-62
2022/06/02 01:13:20;;;;;;;;;;;;;;;;;;4984903;28;113782;-62
2022/06/02 01:15:46;;;;;;;;;;;;;;;;;;4975884;28;136686;-62
2022/06/02 01:18:13;;;;;;;;;;;;;;;;;;4974413;28;122183;-62
2022/06/02 01:20:39;;;;;;;;;;;;;;;;;;4987166;28;136666;-62
2022/06/02 01:23:05;;;;;;;;;;;;;;;;;;4986662;28;106111;-62
2022/06/02 01:25:32;;;;;;;;;;;;;;;;;;4979920;28;126727;-63
2022/06/02 01:27:58;;;;;;;;;;;;;;;;;;4980063;28;134919;-62
2022/06/02 01:30:24;;;;;;;;;;;;;;;;;;4986403;28;106371;-63
2022/06/02 01:32:51;;;;;;;;;;;;;;;;;;4985589;28;131850;-63
2022/06/02 01:35:17;;;;;;;;;;;;;;;;;;4987408;28;135528;-63
2022/06/02 01:37:43;;;;;;;;;;;;;;;;;;4980665;28;106006;-64
2022/06/02 01:40:10;;;;;;;;;;;;;;;;;;4970919;28;131750;-63
2022/06/02 01:42:36;;;;;;;;;;;;;;;;;;4990636;28;108242;-63
2022/06/02 01:45:02;;;;;;;;;;;;;;;;;;4972904;28;122627;-63
2022/06/02 01:47:28;;;;;;;;;;;;;;;;;;4983362;28;125031;-63
2022/06/02 01:49:55;;;;;;;;;;;;;;;;;;4981789;28;122148;-63
2022/06/02 01:52:21;;;;;;;;;;;;;;;;;;4983164;28;132188;-65
2022/06/02 01:54:47;;;;;;;;;;;;;;;;;;4984962;28;112104;-63
2022/06/02 01:57:14;;;;;;;;;;;;;;;;;;4975908;28;122964;-63
2022/06/02 01:59:40;;;;;;;;;;;;;;;;;;4984095;28;128940;-63
2022/06/02 02:02:06;;;;;;;;;;;;;;;;;;4989356;28;126528;-63
2022/06/02 02:04:33;;;;;;;;;;;;;;;;;;4988733;28;132318;-63
2022/06/02 02:06:59;;;;;;;;;;;;;;;;;;4986422;28;129419;-63
2022/06/02 02:09:25;;;;;;;;;;;;;;;;;;4977398;28;122656;-63
2022/06/02 02:11:52;;;;;;;;;;;;;;;;;;4975292;28;137301;-63
2022/06/02 02:14:18;;;;;;;;;;;;;;;;;;4977669;28;133494;-63
2022/06/02 02:16:44;;;;;;;;;;;;;;;;;;4998701;28;107667;-63
2022/06/02 02:19:11;;;;;;;;;;;;;;;;;;4990337;28;106587;-63
2022/06/02 02:21:37;;;;;;;;;;;;;;;;;;4987278;28;135327;-63
2022/06/02 02:24:03;;;;;;;;;;;;;;;;;;4990839;28;108405;-63
2022/06/02 02:26:30;;;;;;;;;;;;;;;;;;4989744;28;106447;-63
2022/06/02 02:28:56;;;;;;;;;;;;;;;;;;4987970;28;123780;-63
2022/06/02 02:31:22;;;;;;;;;;;;;;;;;;4985332;28;135769;-63
2022/06/02 02:33:49;;;;;;;;;;;;;;;;;;4982327;28;125968;-63
2022/06/02 02:36:15;;;;;;;;;;;;;;;;;;4976036;28;119922;-63
2022/06/02 02:38:42;;;;;;;;;;;;;;;;;;4987978;28;135438;-63
2022/06/02 02:41:08;;;;;;;;;;;;;;;;;;4987319;28;132555;-62
2022/06/02 02:43:34;;;;;;;;;;;;;;;;;;4978300;28;108652;-63
2022/06/02 02:46:01;;;;;;;;;;;;;;;;;;4989058;28;123043;-63
2022/06/02 02:48:27;;;;;;;;;;;;;;;;;;4982852;28;106443;-64
2022/06/02 02:50:54;;;;;;;;;;;;;;;;;;4997091;28;136388;-63
2022/06/02 02:53:20;;;;;;;;;;;;;;;;;;4983996;28;131616;-64
2022/06/02 02:55:46;;;;;;;;;;;;;;;;;;4978100;28;111917;-64
2022/06/02 02:58:13;;;;;;;;;;;;;;;;;;4985291;28;136116;-63
2022/06/02 03:00:39;;;;;;;;;;;;;;;;;;4985908;28;132081;-63
2022/06/02 03:03:06;;;;;;;;;;;;;;;;;;4976819;28;115925;-63
2022/06/02 03:05:32;;;;;;;;;;;;;;;;;;4983769;28;124800;-63
2022/06/02 03:07:58;;;;;;;;;;;;;;;;;;4989758;28;124887;-63
2022/06/02 03:10:24;;;;;;;;;;;;;;;;;;4988540;28;126318;-63
2022/06/02 03:12:51;;;;;;;;;;;;;;;;;;4983978;28;128328;-63
2022/06/02 03:15:18;;;;;;;;;;;;;;;;;;4980289;28;119085;-63
2022/06/02 03:17:46;;;;;;;;;;;;;;;;;;4986788;28;114873;-64
2022/06/02 03:20:13;;;;;;;;;;;;;;;;;;4978648;28;134227;-63
2022/06/02 03:22:39;;;;;;;;;;;;;;;;;;4984275;28;117020;-63
2022/06/02 03:25:05;;;;;;;;;;;;;;;;;;4985578;28;107755;-63
2022/06/02 03:27:32;;;;;;;;;;;;;;;;;;4987653;28;132241;-64
2022/06/02 03:29:59;;;;;;;;;;;;;;;;;;4986607;28;114419;-63
2022/06/02 03:32:25;;;;;;;;;;;;;;;;;;4978204;28;118669;-64
2022/06/02 03:34:51;;;;;;;;;;;;;;;;;;4988736;28;124224;-63
2022/06/02 03:37:17;;;;;;;;;;;;;;;;;;4980684;28;134796;-63
2022/06/02 03:39:44;;;;;;;;;;;;;;;;;;4978933;28;135211;-63
2022/06/02 03:42:10;;;;;;;;;;;;;;;;;;4982260;28;122878;-63
2022/06/02 03:44:36;;;;;;;;;;;;;;;;;;4986570;28;106711;-64
2022/06/02 03:47:03;;;;;;;;;;;;;;;;;;4985503;28;135600;-63
2022/06/02 03:49:29;;;;;;;;;;;;;;;;;;4983882;28;122758;-64
2022/06/02 03:51:55;;;;;;;;;;;;;;;;;;4986136;28;132887;-64
2022/06/02 03:54:22;;;;;;;;;;;;;;;;;;4984020;28;121918;-64
2022/06/02 03:56:49;;;;;;;;;;;;;;;;;;4985188;28;135999;-63
2022/06/02 03:59:15;;;;;;;;;;;;;;;;;;4986423;28;131051;-64
2022/06/02 04:01:42;;;;;;;;;;;;;;;;;;4987941;28;117721;-63
2022/06/02 04:04:08;;;;;;;;;;;;;;;;;;4981125;28;123740;-64
2022/06/02 04:06:35;;;;;;;;;;;;;;;;;;4988389;28;119727;-63
2022/06/02 04:09:02;;;;;;;;;;;;;;;;;;4984566;28;112260;-63
2022/06/02 04:11:28;;;;;;;;;;;;;;;;;;4986287;28;135358;-63
2022/06/02 04:13:57;;;;;;;;;;;;;;;;;;4988193;28;106632;-63
2022/06/02 04:16:23;;;;;;;;;;;;;;;;;;4985899;28;137810;-64
2022/06/02 04:18:49;;;;;;;;;;;;;;;;;;4988302;28;127768;-64
2022/06/02 04:21:16;;;;;;;;;;;;;;;;;;4983746;28;107237;-63
2022/06/02 04:23:42;;;;;;;;;;;;;;;;;;4975993;28;128123;-63
2022/06/02 04:26:10;;;;;;;;;;;;;;;;;;4986359;28;123876;-63
2022/06/02 04:28:36;;;;;;;;;;;;;;;;;;4982848;28;117601;-63
2022/06/02 04:31:03;;;;;;;;;;;;;;;;;;4987582;28;120852;-63
2022/06/02 04:33:30;;;;;;;;;;;;;;;;;;4983209;28;131893;-63
2022/06/02 04:35:57;;;;;;;;;;;;;;;;;;4985829;28;132135;-63
2022/06/02 04:38:23;;;;;;;;;;;;;;;;;;4985784;28;126238;-63
2022/06/02 04:40:50;;;;;;;;;;;;;;;;;;4985556;28;113074;-64
2022/06/02 04:43:16;;;;;;;;;;;;;;;;;;4983972;28;118792;-63
2022/06/02 04:45:43;;;;;;;;;;;;;;;;;;4985922;28;134086;-63
2022/06/02 04:48:09;;;;;;;;;;;;;;;;;;4983235;28;123885;-63
2022/06/02 04:50:35;;;;;;;;;;;;;;;;;;4983509;28;135373;-64
2022/06/02 04:53:02;;;;;;;;;;;;;;;;;;4983923;28;125143;-64
2022/06/02 04:55:28;;;;;;;;;;;;;;;;;;4986748;28;108706;-63
2022/06/02 04:57:55;;;;;;;;;;;;;;;;;;4987823;28;127954;-63
2022/06/02 05:00:21;;;;;;;;;;;;;;;;;;4985478;28;111661;-65
2022/06/02 05:02:47;;;;;;;;;;;;;;;;;;4988335;28;111398;-63
2022/06/02 05:05:14;;;;;;;;;;;;;;;;;;4984948;28;109642;-63
2022/06/02 05:07:40;;;;;;;;;;;;;;;;;;4987457;28;122274;-63
2022/06/02 05:10:07;;;;;;;;;;;;;;;;;;4977935;28;136921;-63
2022/06/02 05:12:33;;;;;;;;;;;;;;;;;;4983825;28;129540;-63
2022/06/02 05:14:59;;;;;;;;;;;;;;;;;;4990932;28;117112;-63
2022/06/02 05:17:26;;;;;;;;;;;;;;;;;;4990640;28;137662;-64
2022/06/02 05:19:52;;;;;;;;;;;;;;;;;;4981990;28;111169;-63
2022/06/02 05:22:18;;;;;;;;;;;;;;;;;;4985374;28;133303;-63
2022/06/02 05:24:44;;;;;;;;;;;;;;;;;;4981431;28;126715;-63
2022/06/02 05:27:11;;;;;;;;;;;;;;;;;;4984516;28;107280;-63
2022/06/02 05:29:38;;;;;;;;;;;;;;;;;;4985126;28;129323;-63
2022/06/02 05:32:05;;;;;;;;;;;;;;;;;;4977137;28;119369;-64
2022/06/02 05:34:31;;;;;;;;;;;;;;;;;;4978304;28;117988;-64
2022/06/02 05:36:57;;;;;;;;;;;;;;;;;;4971345;28;137290;-63
2022/06/02 05:39:24;;;;;;;;;;;;;;;;;;4979618;28;131707;-64
2022/06/02 05:41:50;;;;;;;;;;;;;;;;;;4985119;28;132735;-63
2022/06/02 05:44:16;;;;;;;;;;;;;;;;;;4987058;28;125826;-63
2022/06/02 05:46:43;;;;;;;;;;;;;;;;;;4982711;28;122364;-63
2022/06/02 05:49:09;;;;;;;;;;;;;;;;;;4984841;28;129950;-63
2022/06/02 05:51:35;;;;;;;;;;;;;;;;;;4985328;28;109979;-64
2022/06/02 05:54:02;;;;;;;;;;;;;;;;;;4981413;28;121212;-63
2022/06/02 05:56:29;;;;;;;;;;;;;;;;;;4979071;28;107543;-63
2022/06/02 05:58:55;;;;;;;;;;;;;;;;;;4987814;28;131180;-63
2022/06/02 06:01:22;;;;;;;;;;;;;;;;;;4992016;28;122002;-64
2022/06/02 06:03:49;;;;;;;;;;;;;;;;;;4981509;28;131957;-65
2022/06/02 06:06:18;;;;;;;;;;;;;;;;;;4991717;28;105931;-63
2022/06/02 06:08:44;;;;;;;;;;;;;;;;;;4975169;28;137834;-63
2022/06/02 06:11:11;;;;;;;;;;;;;;;;;;4988632;28;118821;-63
2022/06/02 06:13:38;;;;;;;;;;;;;;;;;;4977664;28;107063;-63
2022/06/02 06:16:04;;;;;;;;;;;;;;;;;;4989063;28;120459;-64
2022/06/02 06:18:31;;;;;;;;;;;;;;;;;;4986134;28;125790;-63
2022/06/02 06:20:57;;;;;;;;;;;;;;;;;;4993238;28;117404;-63
2022/06/02 06:23:23;;;;;;;;;;;;;;;;;;4979193;28;118780;-63
2022/06/02 06:25:50;;;;;;;;;;;;;;;;;;4985421;28;121958;-63
2022/06/02 06:28:16;;;;;;;;;;;;;;;;;;4990415;28;130923;-64
2022/06/02 06:30:42;;;;;;;;;;;;;;;;;;4987157;28;107467;-65
2022/06/02 06:33:09;;;;;;;;;;;;;;;;;;4980506;28;121065;-63
2022/06/02 06:35:35;;;;;;;;;;;;;;;;;;4988729;28;135161;-63
2022/06/02 06:38:01;;;;;;;;;;;;;;;;;;4987291;28;108391;-64
2022/06/02 06:40:28;;;;;;;;;;;;;;;;;;4986698;28;120915;-64
2022/06/02 06:42:54;;;;;;;;;;;;;;;;;;4991754;28;106399;-64
2022/06/02 06:45:20;;;;;;;;;;;;;;;;;;4985913;28;123221;-65
2022/06/02 06:47:47;;;;;;;;;;;;;;;;;;4990062;28;125751;-64
2022/06/02 06:50:13;;;;;;;;;;;;;;;;;;4989933;28;106400;-62
2022/06/02 06:52:40;;;;;;;;;;;;;;;;;;4984831;28;122615;-64
2022/06/02 06:55:06;;;;;;;;;;;;;;;;;;4989163;28;126520;-64
2022/06/02 06:57:32;;;;;;;;;;;;;;;;;;4985533;28;125640;-63
2022/06/02 06:59:59;;;;;;;;;;;;;;;;;;4987851;28;107208;-63
2022/06/02 07:02:25;;;;;;;;;;;;;;;;;;4983696;28;136552;-63
2022/06/02 07:04:51;;;;;;;;;;;;;;;;;;4990564;28;130991;-62
2022/06/02 07:07:18;;;;;;;;;;;;;;;;;;4983112;28;135187;-62
2022/06/02 07:09:44;;;;;;;;;;;;;;;;;;4982685;28;136999;-62
2022/06/02 07:14:55;;;;;;;;;;;;;;;;;;4985147;28;134165;-61
2022/06/02 07:17:23;;;;;;;;;;;;;;;;;;4985859;28;110052;-65
2022/06/02 07:19:49;;;;;;;;;;;;;;;;;;4968729;28;123283;-64
2022/06/02 07:22:15;;;;;;;;;;;;;;;;;;4977156;28;137150;-64
2022/06/02 07:24:42;;;;;;;;;;;;;;;;;;4978367;28;136098;-65
2022/06/02 07:27:08;;;;;;;;;;;;;;;;;;4990994;28;114842;-65
2022/06/02 07:29:34;;;;;;;;;;;;;;;;;;4982031;28;132227;-65
2022/06/02 07:32:02;;;;;;;;;;;;;;;;;;4987466;28;121418;-64
2022/06/02 07:34:30;;;;;;;;;;;;;;;;;;4977047;28;107764;-63
2022/06/02 07:36:57;;;;;;;;;;;;;;;;;;4981224;28;135690;-63
2022/06/02 07:39:23;;;;;;;;;;;;;;;;;;4978518;28;111621;-65
2022/06/02 07:41:50;;;;;;;;;;;;;;;;;;4986235;28;125255;-63
2022/06/02 07:44:16;;;;;;;;;;;;;;;;;;4985098;28;128320;-63
2022/06/02 07:46:42;;;;;;;;;;;;;;;;;;4982936;28;106695;-63
2022/06/02 07:49:10;;;;;;;;;;;;;;;;;;4984644;28;117755;-64
2022/06/02 07:51:36;;;;;;;;;;;;;;;;;;4983408;28;106402;-65
2022/06/02 07:54:02;;;;;;;;;;;;;;;;;;4984074;28;106991;-63
2022/06/02 07:56:29;;;;;;;;;;;;;;;;;;4974582;28;137184;-65
2022/06/02 07:58:55;;;;;;;;;;;;;;;;;;4976416;28;119135;-65
2022/06/02 08:01:21;;;;;;;;;;;;;;;;;;4980851;28;107405;-64
2022/06/02 08:03:48;;;;;;;;;;;;;;;;;;4978593;28;132493;-63
2022/06/02 08:06:14;;;;;;;;;;;;;;;;;;4982760;28;121819;-64
2022/06/02 08:09:01;;;;;;;;;;;;;;;;;;4988138;28;107049;-63
2022/06/02 08:11:27;;;;;;;;;;;;;;;;;;4978173;28;106951;-63
2022/06/02 08:13:54;;;;;;;;;;;;;;;;;;4986243;28;137496;-63
2022/06/02 08:16:20;;;;;;;;;;;;;;;;;;4984891;28;127005;-65
2022/06/02 08:18:47;;;;;;;;;;;;;;;;;;4985086;28;106941;-63
2022/06/02 08:21:16;;;;;;;;;;;;;;;;;;4989008;28;109906;-63
2022/06/02 08:23:43;;;;;;;;;;;;;;;;;;4978492;28;107961;-64
2022/06/02 08:26:09;;;;;;;;;;;;;;;;;;4986336;28;106843;-64
2022/06/02 08:28:36;;;;;;;;;;;;;;;;;;4977923;28;132500;-64
2022/06/02 08:31:02;;;;;;;;;;;;;;;;;;4987058;28;130275;-64
2022/06/02 08:33:29;;;;;;;;;;;;;;;;;;4979413;28;120435;-64
2022/06/02 08:35:55;;;;;;;;;;;;;;;;;;4980876;28;110031;-66
2022/06/02 08:38:21;;;;;;;;;;;;;;;;;;4978377;28;118737;-65
2022/06/02 08:40:50;;;;;;;;;;;;;;;;;;4981747;28;132779;-65
2022/06/02 08:43:17;;;;;;;;;;;;;;;;;;4979745;28;136169;-64
2022/06/02 08:45:44;;;;;;;;;;;;;;;;;;4988117;28;115125;-64
2022/06/02 08:48:12;;;;;;;;;;;;;;;;;;4984275;28;122550;-64
2022/06/02 08:50:38;;;;;;;;;;;;;;;;;;4986181;28;109696;-64
2022/06/02 08:53:07;;;;;;;;;;;;;;;;;;4982501;28;106658;-64
2022/06/02 08:55:33;;;;;;;;;;;;;;;;;;4984582;28;119661;-64
2022/06/02 08:58:09;;;;;;;;;;;;;;;;;;4984695;28;107760;-65
2022/06/02 09:00:35;;;;;;;;;;;;;;;;;;4982256;28;130152;-65
2022/06/02 09:03:01;;;;;;;;;;;;;;;;;;4978956;28;123557;-64
2022/06/02 09:05:28;;;;;;;;;;;;;;;;;;4983082;28;123421;-64
2022/06/02 09:07:54;;;;;;;;;;;;;;;;;;4977629;28;136389;-65
2022/06/02 09:10:20;;;;;;;;;;;;;;;;;;4979255;28;118633;-64
2022/06/02 09:12:48;;;;;;;;;;;;;;;;;;4982111;28;120737;-66
2022/06/02 09:15:15;;;;;;;;;;;;;;;;;;4985983;28;108336;-64
2022/06/02 09:17:41;;;;;;;;;;;;;;;;;;4985023;28;123162;-64
2022/06/02 09:20:08;;;;;;;;;;;;;;;;;;4979067;28;127651;-64
2022/06/02 09:22:34;;;;;;;;;;;;;;;;;;4985389;28;123179;-67
2022/06/02 09:25:00;;;;;;;;;;;;;;;;;;4991103;28;112284;-64
2022/06/02 09:27:27;;;;;;;;;;;;;;;;;;4989131;28;106830;-64
2022/06/02 09:29:53;;;;;;;;;;;;;;;;;;4987573;28;122987;-63
2022/06/02 09:32:19;;;;;;;;;;;;;;;;;;4983086;28;106124;-64
2022/06/02 09:34:50;;;;;;;;;;;;;;;;;;4983967;28;126643;-64
2022/06/02 09:37:16;;;;;;;;;;;;;;;;;;4980361;28;121935;-66
2022/06/02 09:39:42;;;;;;;;;;;;;;;;;;4999618;28;120249;-65
2022/06/02 09:42:09;;;;;;;;;;;;;;;;;;4980067;28;135665;-63
2022/06/02 09:44:35;;;;;;;;;;;;;;;;;;4982139;28;121052;-66
2022/06/02 09:47:01;;;;;;;;;;;;;;;;;;4988185;28;136720;-64
2022/06/02 09:49:28;;;;;;;;;;;;;;;;;;4984973;28;107583;-65
2022/06/02 09:51:55;;;;;;;;;;;;;;;;;;4988171;28;106947;-65
2022/06/02 09:54:21;;;;;;;;;;;;;;;;;;4985454;28;112489;-66
2022/06/02 09:56:48;;;;;;;;;;;;;;;;;;4985672;28;134507;-65
2022/06/02 09:59:14;;;;;;;;;;;;;;;;;;4989712;28;125623;-63
2022/06/02 10:01:40;;;;;;;;;;;;;;;;;;4985121;28;137321;-63
2022/06/02 10:04:07;;;;;;;;;;;;;;;;;;4990496;28;116207;-63
2022/06/02 10:06:33;;;;;;;;;;;;;;;;;;4986043;28;118970;-63
2022/06/02 10:09:01;;;;;;;;;;;;;;;;;;4989525;28;135861;-63
2022/06/02 10:11:31;;;;;;;;;;;;;;;;;;4984524;28;122156;-63
2022/06/02 10:13:58;;;;;;;;;;;;;;;;;;4986526;28;106745;-62
2022/06/02 10:16:24;;;;;;;;;;;;;;;;;;4988662;28;135731;-63
2022/06/02 10:18:50;;;;;;;;;;;;;;;;;;4991900;28;107253;-63
2022/06/02 10:21:17;;;;;;;;;;;;;;;;;;4986619;28;135981;-63
2022/06/02 10:23:43;;;;;;;;;;;;;;;;;;4988823;28;109148;-67
2022/06/02 10:26:09;;;;;;;;;;;;;;;;;;4982105;28;130637;-63
2022/06/02 10:28:36;;;;;;;;;;;;;;;;;;4973570;28;129506;-63
2022/06/02 10:31:02;;;;;;;;;;;;;;;;;;4986810;28;107632;-64
2022/06/02 10:33:28;;;;;;;;;;;;;;;;;;4982335;28;137824;-63
2022/06/02 10:36:00;;;;;;;;;;;;;;;;;;4990206;28;106936;-63
2022/06/02 10:38:26;;;;;;;;;;;;;;;;;;4982736;28;124539;-63
2022/06/02 10:40:53;;;;;;;;;;;;;;;;;;4992632;28;133595;-63
2022/06/02 10:43:19;;;;;;;;;;;;;;;;;;4984779;28;118953;-63
2022/06/02 10:45:45;;;;;;;;;;;;;;;;;;4983744;28;125330;-63
2022/06/02 10:48:12;;;;;;;;;;;;;;;;;;4983551;28;137061;-63
2022/06/02 10:50:38;;;;;;;;;;;;;;;;;;4982320;28;116023;-63
2022/06/02 10:53:04;;;;;;;;;;;;;;;;;;5001916;27;116797;-68
2022/06/02 10:55:31;;;;;;;;;;;;;;;;;;4984355;28;136995;-64
2022/06/02 10:57:57;;;;;;;;;;;;;;;;;;4982622;28;120817;-64
2022/06/02 11:00:23;;;;;;;;;;;;;;;;;;4986395;28;133222;-65
2022/06/02 11:02:50;;;;;;;;;;;;;;;;;;4987950;28;136978;-65
2022/06/02 11:05:16;;;;;;;;;;;;;;;;;;4981340;28;108951;-65
2022/06/02 11:08:00;;;;;;;;;;;;;;;;;;4981754;28;122441;-64
2022/06/02 11:10:29;;;;;;;;;;;;;;;;;;4987718;28;122612;-65
2022/06/02 11:12:55;;;;;;;;;;;;;;;;;;4978795;28;136386;-65
2022/06/02 11:15:22;;;;;;;;;;;;;;;;;;4977760;28;124609;-66
2022/06/02 11:17:48;;;;;;;;;;;;;;;;;;4983745;28;115471;-67
2022/06/02 11:20:14;;;;;;;;;;;;;;;;;;4987460;28;114786;-66
2022/06/02 11:22:40;;;;;;;;;;;;;;;;;;4978425;28;134978;-67
2022/06/02 11:25:13;;;;;;;;;;;;;;;;;;4988375;28;121065;-67
2022/06/02 11:27:40;;;;;;;;;;;;;;;;;;4983803;28;136759;-66
2022/06/02 11:30:06;;;;;;;;;;;;;;;;;;4967250;28;125008;-66
2022/06/02 11:32:33;;;;;;;;;;;;;;;;;;4984928;28;128367;-66
2022/06/02 11:35:00;;;;;;;;;;;;;;;;;;4983700;28;134788;-66
2022/06/02 11:37:26;;;;;;;;;;;;;;;;;;4985332;28;118566;-67
2022/06/02 11:39:52;;;;;;;;;;;;;;;;;;4984817;28;118168;-66
2022/06/02 11:42:19;;;;;;;;;;;;;;;;;;4975359;28;126346;-66
2022/06/02 11:44:46;;;;;;;;;;;;;;;;;;4988982;28;112564;-66
2022/06/02 11:47:12;;;;;;;;;;;;;;;;;;4990590;28;108906;-67
2022/06/02 11:49:39;;;;;;;;;;;;;;;;;;4983836;28;114239;-66
2022/06/02 11:52:05;;;;;;;;;;;;;;;;;;4984200;28;124136;-68
2022/06/02 11:54:31;;;;;;;;;;;;;;;;;;4984886;28;137865;-67
2022/06/02 11:56:58;;;;;;;;;;;;;;;;;;4985057;28;112957;-66
2022/06/02 11:59:24;;;;;;;;;;;;;;;;;;4985764;28;107509;-67
2022/06/02 12:01:50;;;;;;;;;;;;;;;;;;4987716;28;132775;-66
2022/06/02 12:04:17;;;;;;;;;;;;;;;;;;4984439;28;113165;-66
2022/06/02 12:06:43;;;;;;;;;;;;;;;;;;4988787;28;134464;-66
2022/06/02 12:09:09;;;;;;;;;;;;;;;;;;4974904;28;130662;-67
2022/06/02 12:11:36;;;;;;;;;;;;;;;;;;4982004;28;107771;-67
2022/06/02 12:14:02;;;;;;;;;;;;;;;;;;4979711;28;138136;-66
2022/06/02 12:16:28;;;;;;;;;;;;;;;;;;4986578;28;106426;-67
2022/06/02 12:18:55;;;;;;;;;;;;;;;;;;4976533;28;136877;-67
2022/06/02 12:21:21;;;;;;;;;;;;;;;;;;4983944;28;113788;-68
2022/06/02 12:23:48;;;;;;;;;;;;;;;;;;4980053;28;107008;-66
2022/06/02 12:26:14;;;;;;;;;;;;;;;;;;4989020;28;123560;-66
2022/06/02 12:28:41;;;;;;;;;;;;;;;;;;4980536;28;116461;-66
2022/06/02 12:31:07;;;;;;;;;;;;;;;;;;4973890;28;129922;-66
2022/06/02 12:33:33;;;;;;;;;;;;;;;;;;4984559;28;129838;-66
2022/06/02 12:36:00;;;;;;;;;;;;;;;;;;4983286;28;106614;-64
2022/06/02 12:38:26;;;;;;;;;;;;;;;;;;4979767;28;126864;-65
2022/06/02 12:40:52;;;;;;;;;;;;;;;;;;4985292;28;108274;-65
2022/06/02 12:43:19;;;;;;;;;;;;;;;;;;4981179;28;107666;-66
2022/06/02 12:45:45;;;;;;;;;;;;;;;;;;4981503;28;137376;-66
2022/06/02 12:48:12;;;;;;;;;;;;;;;;;;4986305;28;118180;-65
2022/06/02 12:50:38;;;;;;;;;;;;;;;;;;4986909;28;119122;-66
2022/06/02 12:53:04;;;;;;;;;;;;;;;;;;4985536;28;112922;-67
2022/06/02 12:55:30;;;;;;;;;;;;;;;;;;4984896;28;123545;-68
2022/06/02 12:57:57;;;;;;;;;;;;;;;;;;4987512;28;130300;-68
2022/06/02 13:00:23;;;;;;;;;;;;;;;;;;4984256;28;136973;-66
2022/06/02 13:02:50;;;;;;;;;;;;;;;;;;4978517;28;110814;-63
2022/06/02 13:05:17;;;;;;;;;;;;;;;;;;4979438;28;107402;-65
2022/06/02 13:07:45;;;;;;;;;;;;;;;;;;4982837;28;137171;-64
2022/06/02 13:10:11;;;;;;;;;;;;;;;;;;4979303;28;117735;-64
2022/06/02 13:12:37;;;;;;;;;;;;;;;;;;4986427;28;137601;-64
2022/06/02 13:15:05;;;;;;;;;;;;;;;;;;4986989;28;121046;-66
2022/06/02 13:17:31;;;;;;;;;;;;;;;;;;4980063;28;135904;-64
2022/06/02 13:19:58;;;;;;;;;;;;;;;;;;4978560;28;115110;-64
2022/06/02 13:22:24;;;;;;;;;;;;;;;;;;4976749;28;117635;-64
2022/06/02 13:24:50;;;;;;;;;;;;;;;;;;4985261;28;128214;-64
2022/06/02 13:27:17;;;;;;;;;;;;;;;;;;4986700;28;132986;-64
2022/06/02 13:29:43;;;;;;;;;;;;;;;;;;4978794;28;123612;-65
2022/06/02 13:32:09;;;;;;;;;;;;;;;;;;4978594;28;126792;-65
2022/06/02 13:34:36;;;;;;;;;;;;;;;;;;4983258;28;129349;-64
2022/06/02 13:37:02;;;;;;;;;;;;;;;;;;4980074;28;129208;-64
2022/06/02 13:39:29;;;;;;;;;;;;;;;;;;4980310;28;107612;-64
2022/06/02 13:41:56;;;;;;;;;;;;;;;;;;4981634;28;122972;-64
2022/06/02 13:44:22;;;;;;;;;;;;;;;;;;4991882;28;138404;-64
2022/06/02 13:46:48;;;;;;;;;;;;;;;;;;4975886;28;127657;-64
2022/06/02 13:49:21;;;;;;;;;;;;;;;;;;4986811;28;115410;-67
2022/06/02 13:51:47;;;;;;;;;;;;;;;;;;4975655;28;127085;-64
2022/06/02 13:59:45;;;;;;;;;;;;;;;;;;4980537;28;127216;-64
2022/06/02 14:02:11;;;;;;;;;;;;;;;;;;4983736;28;122991;-64
2022/06/02 14:04:37;;;;;;;;;;;;;;;;;;4987588;28;129838;-65
2022/06/02 14:07:04;;;;;;;;;;;;;;;;;;4981292;28;111173;-65
2022/06/02 14:09:30;;;;;;;;;;;;;;;;;;4990830;28;106794;-64
2022/06/02 14:11:56;;;;;;;;;;;;;;;;;;4983416;28;132328;-64
2022/06/02 14:14:23;;;;;;;;;;;;;;;;;;4971319;28;117614;-66
2022/06/02 14:16:49;;;;;;;;;;;;;;;;;;4965657;28;121156;-64
2022/06/02 14:19:15;;;;;;;;;;;;;;;;;;4964527;28;125477;-64
2022/06/02 14:21:42;;;;;;;;;;;;;;;;;;4966750;28;113585;-65
2022/06/02 14:24:08;;;;;;;;;;;;;;;;;;4963546;28;124497;-65
2022/06/02 14:26:35;;;;;;;;;;;;;;;;;;4965851;28;136906;-65
2022/06/02 14:29:05;;;;;;;;;;;;;;;;;;4962006;28;106786;-65
2022/06/02 14:31:31;;;;;;;;;;;;;;;;;;4965929;28;117067;-67
2022/06/02 14:33:58;;;;;;;;;;;;;;;;;;4961124;28;125671;-66
2022/06/02 14:36:24;;;;;;;;;;;;;;;;;;4965912;28;124295;-66
2022/06/02 14:38:50;;;;;;;;;;;;;;;;;;4971490;28;132765;-65
2022/06/02 14:41:17;;;;;;;;;;;;;;;;;;4965450;28;108586;-66
2022/06/02 14:43:43;;;;;;;;;;;;;;;;;;4960124;28;126007;-65
2022/06/02 14:46:09;;;;;;;;;;;;;;;;;;4961275;28;133437;-65
2022/06/02 14:48:36;;;;;;;;;;;;;;;;;;4960008;28;106789;-66
2022/06/02 14:51:02;;;;;;;;;;;;;;;;;;4963002;28;123405;-66
2022/06/02 14:53:28;;;;;;;;;;;;;;;;;;4968002;28;106663;-67
2022/06/02 14:55:55;;;;;;;;;;;;;;;;;;4965795;28;123201;-67
2022/06/02 14:58:21;;;;;;;;;;;;;;;;;;4968140;28;127623;-67
2022/06/02 15:00:50;;;;;;;;;;;;;;;;;;4955080;28;132490;-67
2022/06/02 15:03:17;;;;;;;;;;;;;;;;;;4961005;28;136859;-67
2022/06/02 15:05:43;;;;;;;;;;;;;;;;;;4965511;28;127767;-67
2022/06/02 15:08:09;;;;;;;;;;;;;;;;;;4963624;28;114351;-67
2022/06/02 15:10:36;;;;;;;;;;;;;;;;;;4967704;28;107539;-67
2022/06/02 15:13:04;;;;;;;;;;;;;;;;;;4965564;28;136147;-67
2022/06/02 15:15:30;;;;;;;;;;;;;;;;;;4986651;28;111158;-66
2022/06/02 15:18:01;;;;;;;;;;;;;;;;;;4986220;28;133994;-67
2022/06/02 15:20:28;;;;;;;;;;;;;;;;;;4982092;28;127401;-67
2022/06/02 15:23:14;;;;;;;;;;;;;;;;;;4989971;28;107397;-66
2022/06/02 15:25:40;;;;;;;;;;;;;;;;;;4980252;28;112285;-66
2022/06/02 15:28:07;;;;;;;;;;;;;;;;;;4986376;28;110466;-67
2022/06/02 15:30:33;;;;;;;;;;;;;;;;;;4978575;28;135571;-67
2022/06/02 15:32:59;;;;;;;;;;;;;;;;;;4976566;28;138178;-67
2022/06/02 15:35:26;;;;;;;;;;;;;;;;;;4974726;28;111577;-67
2022/06/02 15:37:52;;;;;;;;;;;;;;;;;;4980170;28;116300;-67
2022/06/02 15:40:18;;;;;;;;;;;;;;;;;;4977180;28;131205;-67
2022/06/02 15:42:45;;;;;;;;;;;;;;;;;;4976938;28;126567;-70
2022/06/02 15:45:11;;;;;;;;;;;;;;;;;;4981951;28;108989;-68
2022/06/02 15:47:38;;;;;;;;;;;;;;;;;;4980776;28;108057;-67
2022/06/02 15:50:04;;;;;;;;;;;;;;;;;;4982746;28;129443;-65
2022/06/02 15:52:31;;;;;;;;;;;;;;;;;;4980378;28;128164;-65
2022/06/02 15:54:58;;;;;;;;;;;;;;;;;;4979206;28;109083;-65
2022/06/02 15:57:24;;;;;;;;;;;;;;;;;;4982989;28;111539;-66
2022/06/02 15:59:50;;;;;;;;;;;;;;;;;;4975862;28;132823;-67
2022/06/02 16:02:17;;;;;;;;;;;;;;;;;;4984200;27;106510;-65
2022/06/02 16:04:44;;;;;;;;;;;;;;;;;;4980519;28;110360;-66
2022/06/02 16:07:10;;;;;;;;;;;;;;;;;;4981966;27;107658;-66
2022/06/02 16:12:21;;;;;;;;;;;;;;;;;;4984925;28;132452;-65
2022/06/02 16:14:48;;;;;;;;;;;;;;;;;;4976795;28;118357;-66
2022/06/02 16:17:14;;;;;;;;;;;;;;;;;;4984272;28;107803;-66
2022/06/02 16:19:42;;;;;;;;;;;;;;;;;;4976879;28;131713;-65
2022/06/02 16:22:08;;;;;;;;;;;;;;;;;;4982254;28;107241;-66
2022/06/02 16:24:35;;;;;;;;;;;;;;;;;;4985607;28;128788;-67
2022/06/02 16:27:01;;;;;;;;;;;;;;;;;;4976940;28;136585;-65
2022/06/02 16:29:27;;;;;;;;;;;;;;;;;;4985139;28;106872;-66
2022/06/02 16:31:54;;;;;;;;;;;;;;;;;;4983420;28;117569;-66
2022/06/02 16:34:21;;;;;;;;;;;;;;;;;;4976484;28;106734;-70
2022/06/02 16:36:47;;;;;;;;;;;;;;;;;;4975558;28;135818;-67
2022/06/02 16:39:14;;;;;;;;;;;;;;;;;;4973486;28;131513;-67